sensor_id;sensor_type;location;lat;lon;timestamp;P1;durP1;ratioP1;P2;durP2;ratioP2
30474;SDS011;17264;53.340;9.888;2022-07-01T00:01:35;14.15;;;6.28;;
30474;SDS011;17264;53.340;9.888;2022-07-01T00:04:01;14.65;;;7.25;;
30474;SDS011;17264;53.340;9.888;2022-07-01T00:06:27;31.92;;;9.57;;
30474;SDS011;17264;53.340;9.888;2022-07-01T00:08:53;19.02;;;8.70;;
30474;SDS011;17264;53.340;9.888;2022-07-01T00:11:19;12.13;;;7.90;;
30474;SDS011;17264;53.340;9.888;2022-07-01T00:13:45;17.70;;;8.75;;
30474;SDS011;17264;53.340;9.888;2022-07-01T00:16:10;14.48;;;8.45;;
30474;SDS011;17264;53.340;9.888;2022-07-01T00:18:36;12.18;;;7.07;;
30474;SDS011;17264;53.340;9.888;2022-07-01T00:21:03;16.98;;;7.50;;
30474;SDS011;17264;53.340;9.888;2022-07-01T00:23:28;13.60;;;7.15;;
30474;SDS011;17264;53.340;9.888;2022-07-01T00:25:55;14.65;;;7.38;;
30474;SDS011;17264;53.340;9.888;2022-07-01T00:28:21;17.58;;;7.95;;
30474;SDS011;17264;53.340;9.888;2022-07-01T00:30:47;19.70;;;9.25;;
30474;SDS011;17264;53.340;9.888;2022-07-01T00:33:13;22.45;;;10.57;;
30474;SDS011;17264;53.340;9.888;2022-07-01T00:35:39;15.05;;;7.85;;
30474;SDS011;17264;53.340;9.888;2022-07-01T00:38:05;14.57;;;7.63;;
30474;SDS011;17264;53.340;9.888;2022-07-01T00:40:31;11.95;;;7.47;;
30474;SDS011;17264;53.340;9.888;2022-07-01T00:42:57;13.95;;;8.00;;
30474;SDS011;17264;53.340;9.888;2022-07-01T00:45:22;13.18;;;7.35;;
30474;SDS011;17264;53.340;9.888;2022-07-01T00:47:48;15.20;;;7.78;;
30474;SDS011;17264;53.340;9.888;2022-07-01T00:50:15;13.90;;;7.50;;
30474;SDS011;17264;53.340;9.888;2022-07-01T00:52:43;13.98;;;6.72;;
30474;SDS011;17264;53.340;9.888;2022-07-01T00:55:12;13.35;;;7.45;;
30474;SDS011;17264;53.340;9.888;2022-07-01T00:57:39;13.20;;;7.60;;
30474;SDS011;17264;53.340;9.888;2022-07-01T01:00:07;12.05;;;6.95;;
30474;SDS011;17264;53.340;9.888;2022-07-01T01:02:35;10.90;;;6.57;;
30474;SDS011;17264;53.340;9.888;2022-07-01T01:05:05;12.48;;;6.93;;
30474;SDS011;17264;53.340;9.888;2022-07-01T01:07:32;10.90;;;7.20;;
30474;SDS011;17264;53.340;9.888;2022-07-01T01:10:01;10.38;;;6.13;;
30474;SDS011;17264;53.340;9.888;2022-07-01T01:12:28;8.60;;;5.72;;
30474;SDS011;17264;53.340;9.888;2022-07-01T01:14:55;15.02;;;6.95;;
30474;SDS011;17264;53.340;9.888;2022-07-01T01:17:22;14.10;;;7.10;;
30474;SDS011;17264;53.340;9.888;2022-07-01T01:19:48;11.35;;;7.35;;
30474;SDS011;17264;53.340;9.888;2022-07-01T01:22:15;10.95;;;6.25;;
30474;SDS011;17264;53.340;9.888;2022-07-01T01:24:42;9.27;;;6.45;;
30474;SDS011;17264;53.340;9.888;2022-07-01T01:27:15;11.25;;;6.35;;
30474;SDS011;17264;53.340;9.888;2022-07-01T01:29:42;11.27;;;6.20;;
30474;SDS011;17264;53.340;9.888;2022-07-01T01:32:08;12.77;;;7.00;;
30474;SDS011;17264;53.340;9.888;2022-07-01T01:34:38;10.95;;;6.75;;
30474;SDS011;17264;53.340;9.888;2022-07-01T01:37:07;14.82;;;7.40;;
30474;SDS011;17264;53.340;9.888;2022-07-01T01:39:33;11.20;;;6.90;;
30474;SDS011;17264;53.340;9.888;2022-07-01T01:42:02;8.38;;;5.97;;
30474;SDS011;17264;53.340;9.888;2022-07-01T01:44:29;13.13;;;6.10;;
30474;SDS011;17264;53.340;9.888;2022-07-01T01:46:55;11.35;;;6.85;;
30474;SDS011;17264;53.340;9.888;2022-07-01T01:49:21;9.55;;;6.75;;
30474;SDS011;17264;53.340;9.888;2022-07-01T01:51:46;8.70;;;6.32;;
30474;SDS011;17264;53.340;9.888;2022-07-01T01:54:12;12.35;;;7.07;;
30474;SDS011;17264;53.340;9.888;2022-07-01T01:56:38;12.98;;;7.00;;
30474;SDS011;17264;53.340;9.888;2022-07-01T01:59:03;15.50;;;7.22;;
30474;SDS011;17264;53.340;9.888;2022-07-01T02:01:30;11.60;;;7.45;;
30474;SDS011;17264;53.340;9.888;2022-07-01T02:03:56;12.55;;;7.68;;
30474;SDS011;17264;53.340;9.888;2022-07-01T02:06:24;11.25;;;7.53;;
30474;SDS011;17264;53.340;9.888;2022-07-01T02:08:49;10.48;;;6.57;;
30474;SDS011;17264;53.340;9.888;2022-07-01T02:11:15;13.57;;;7.93;;
30474;SDS011;17264;53.340;9.888;2022-07-01T02:13:41;11.93;;;7.85;;
30474;SDS011;17264;53.340;9.888;2022-07-01T02:16:09;13.35;;;8.75;;
30474;SDS011;17264;53.340;9.888;2022-07-01T02:18:35;13.30;;;8.77;;
30474;SDS011;17264;53.340;9.888;2022-07-01T02:21:00;11.02;;;8.48;;
30474;SDS011;17264;53.340;9.888;2022-07-01T02:23:26;11.88;;;8.63;;
30474;SDS011;17264;53.340;9.888;2022-07-01T02:25:54;14.52;;;9.68;;
30474;SDS011;17264;53.340;9.888;2022-07-01T02:28:20;11.07;;;9.38;;
30474;SDS011;17264;53.340;9.888;2022-07-01T02:30:46;14.80;;;9.50;;
30474;SDS011;17264;53.340;9.888;2022-07-01T02:33:12;13.68;;;10.25;;
30474;SDS011;17264;53.340;9.888;2022-07-01T02:35:38;13.88;;;9.27;;
30474;SDS011;17264;53.340;9.888;2022-07-01T02:38:05;14.32;;;9.52;;
30474;SDS011;17264;53.340;9.888;2022-07-01T02:40:32;11.43;;;10.10;;
30474;SDS011;17264;53.340;9.888;2022-07-01T02:42:59;13.40;;;10.63;;
30474;SDS011;17264;53.340;9.888;2022-07-01T02:45:25;12.32;;;10.55;;
30474;SDS011;17264;53.340;9.888;2022-07-01T02:47:51;34.92;;;11.40;;
30474;SDS011;17264;53.340;9.888;2022-07-01T02:50:17;16.33;;;10.73;;
30474;SDS011;17264;53.340;9.888;2022-07-01T02:52:44;17.13;;;10.73;;
30474;SDS011;17264;53.340;9.888;2022-07-01T02:55:11;12.13;;;10.32;;
30474;SDS011;17264;53.340;9.888;2022-07-01T02:57:41;12.15;;;10.52;;
30474;SDS011;17264;53.340;9.888;2022-07-01T03:00:09;14.05;;;11.07;;
30474;SDS011;17264;53.340;9.888;2022-07-01T03:02:37;15.48;;;12.30;;
30474;SDS011;17264;53.340;9.888;2022-07-01T03:05:03;17.15;;;12.85;;
30474;SDS011;17264;53.340;9.888;2022-07-01T03:07:31;16.90;;;14.45;;
30474;SDS011;17264;53.340;9.888;2022-07-01T03:09:57;17.35;;;15.20;;
30474;SDS011;17264;53.340;9.888;2022-07-01T03:12:22;31.77;;;18.20;;
30474;SDS011;17264;53.340;9.888;2022-07-01T03:14:55;18.63;;;16.60;;
30474;SDS011;17264;53.340;9.888;2022-07-01T03:17:25;22.73;;;18.60;;
30474;SDS011;17264;53.340;9.888;2022-07-01T03:19:52;22.75;;;20.35;;
30474;SDS011;17264;53.340;9.888;2022-07-01T03:22:19;24.83;;;21.13;;
30474;SDS011;17264;53.340;9.888;2022-07-01T03:24:46;25.13;;;21.27;;
30474;SDS011;17264;53.340;9.888;2022-07-01T03:27:15;24.40;;;21.80;;
30474;SDS011;17264;53.340;9.888;2022-07-01T03:29:42;25.65;;;21.02;;
30474;SDS011;17264;53.340;9.888;2022-07-01T03:32:08;21.30;;;18.92;;
30474;SDS011;17264;53.340;9.888;2022-07-01T03:34:35;23.00;;;17.60;;
30474;SDS011;17264;53.340;9.888;2022-07-01T03:37:05;19.15;;;14.98;;
30474;SDS011;17264;53.340;9.888;2022-07-01T03:39:32;16.83;;;14.23;;
30474;SDS011;17264;53.340;9.888;2022-07-01T03:41:59;17.05;;;14.93;;
30474;SDS011;17264;53.340;9.888;2022-07-01T03:44:25;19.08;;;14.57;;
30474;SDS011;17264;53.340;9.888;2022-07-01T03:46:51;17.80;;;13.98;;
30474;SDS011;17264;53.340;9.888;2022-07-01T03:49:17;16.70;;;13.48;;
30474;SDS011;17264;53.340;9.888;2022-07-01T03:51:43;18.67;;;13.88;;
30474;SDS011;17264;53.340;9.888;2022-07-01T03:54:09;17.17;;;14.90;;
30474;SDS011;17264;53.340;9.888;2022-07-01T03:56:53;18.52;;;16.55;;
30474;SDS011;17264;53.340;9.888;2022-07-01T03:59:19;18.25;;;16.27;;
30474;SDS011;17264;53.340;9.888;2022-07-01T04:01:45;18.48;;;16.08;;
30474;SDS011;17264;53.340;9.888;2022-07-01T04:04:10;19.20;;;16.48;;
30474;SDS011;17264;53.340;9.888;2022-07-01T04:06:36;23.75;;;19.08;;
30474;SDS011;17264;53.340;9.888;2022-07-01T04:09:03;21.05;;;17.02;;
30474;SDS011;17264;53.340;9.888;2022-07-01T04:11:29;22.40;;;19.85;;
30474;SDS011;17264;53.340;9.888;2022-07-01T04:13:54;23.58;;;20.40;;
30474;SDS011;17264;53.340;9.888;2022-07-01T04:16:21;24.23;;;21.67;;
30474;SDS011;17264;53.340;9.888;2022-07-01T04:18:48;23.73;;;20.13;;
30474;SDS011;17264;53.340;9.888;2022-07-01T04:21:15;20.98;;;18.30;;
30474;SDS011;17264;53.340;9.888;2022-07-01T04:26:25;21.35;;;16.55;;
30474;SDS011;17264;53.340;9.888;2022-07-01T04:28:51;24.30;;;16.70;;
30474;SDS011;17264;53.340;9.888;2022-07-01T04:31:17;26.17;;;15.95;;
30474;SDS011;17264;53.340;9.888;2022-07-01T04:33:44;22.25;;;17.20;;
30474;SDS011;17264;53.340;9.888;2022-07-01T04:36:10;31.30;;;19.92;;
30474;SDS011;17264;53.340;9.888;2022-07-01T04:38:36;24.08;;;17.38;;
30474;SDS011;17264;53.340;9.888;2022-07-01T04:41:02;19.95;;;16.00;;
30474;SDS011;17264;53.340;9.888;2022-07-01T04:43:46;26.08;;;14.90;;
30474;SDS011;17264;53.340;9.888;2022-07-01T04:46:12;31.85;;;13.30;;
30474;SDS011;17264;53.340;9.888;2022-07-01T04:48:38;20.55;;;11.88;;
30474;SDS011;17264;53.340;9.888;2022-07-01T04:51:05;15.32;;;10.82;;
30474;SDS011;17264;53.340;9.888;2022-07-01T04:53:31;12.50;;;9.20;;
30474;SDS011;17264;53.340;9.888;2022-07-01T04:55:56;11.88;;;7.55;;
30474;SDS011;17264;53.340;9.888;2022-07-01T04:58:22;12.40;;;6.22;;
30474;SDS011;17264;53.340;9.888;2022-07-01T05:00:48;10.38;;;4.80;;
30474;SDS011;17264;53.340;9.888;2022-07-01T05:03:14;8.05;;;4.03;;
30474;SDS011;17264;53.340;9.888;2022-07-01T05:05:41;5.70;;;3.78;;
30474;SDS011;17264;53.340;9.888;2022-07-01T05:08:08;6.13;;;3.33;;
30474;SDS011;17264;53.340;9.888;2022-07-01T05:10:35;6.88;;;4.32;;
30474;SDS011;17264;53.340;9.888;2022-07-01T05:13:02;6.95;;;3.53;;
30474;SDS011;17264;53.340;9.888;2022-07-01T05:15:28;10.73;;;4.68;;
30474;SDS011;17264;53.340;9.888;2022-07-01T05:17:54;11.57;;;5.68;;
30474;SDS011;17264;53.340;9.888;2022-07-01T05:20:39;7.63;;;5.57;;
30474;SDS011;17264;53.340;9.888;2022-07-01T05:23:23;8.05;;;4.13;;
30474;SDS011;17264;53.340;9.888;2022-07-01T05:25:48;7.97;;;5.65;;
30474;SDS011;17264;53.340;9.888;2022-07-01T05:28:14;7.35;;;3.10;;
30474;SDS011;17264;53.340;9.888;2022-07-01T05:30:40;7.13;;;3.08;;
30474;SDS011;17264;53.340;9.888;2022-07-01T05:33:05;4.38;;;2.30;;
30474;SDS011;17264;53.340;9.888;2022-07-01T05:35:31;5.78;;;2.42;;
30474;SDS011;17264;53.340;9.888;2022-07-01T05:37:57;5.03;;;2.22;;
30474;SDS011;17264;53.340;9.888;2022-07-01T05:40:24;6.68;;;2.67;;
30474;SDS011;17264;53.340;9.888;2022-07-01T05:42:51;9.15;;;2.58;;
30474;SDS011;17264;53.340;9.888;2022-07-01T05:45:17;7.13;;;2.75;;
30474;SDS011;17264;53.340;9.888;2022-07-01T05:47:43;7.07;;;3.38;;
30474;SDS011;17264;53.340;9.888;2022-07-01T05:50:08;5.20;;;2.45;;
30474;SDS011;17264;53.340;9.888;2022-07-01T05:52:34;7.32;;;2.75;;
30474;SDS011;17264;53.340;9.888;2022-07-01T05:55:00;6.53;;;4.10;;
30474;SDS011;17264;53.340;9.888;2022-07-01T05:57:26;7.13;;;3.47;;
30474;SDS011;17264;53.340;9.888;2022-07-01T05:59:51;9.45;;;4.05;;
30474;SDS011;17264;53.340;9.888;2022-07-01T06:02:17;10.73;;;5.10;;
30474;SDS011;17264;53.340;9.888;2022-07-01T06:04:43;11.02;;;4.75;;
30474;SDS011;17264;53.340;9.888;2022-07-01T06:07:09;15.73;;;5.00;;
30474;SDS011;17264;53.340;9.888;2022-07-01T06:09:38;13.23;;;4.50;;
30474;SDS011;17264;53.340;9.888;2022-07-01T06:12:04;11.48;;;4.97;;
30474;SDS011;17264;53.340;9.888;2022-07-01T06:14:31;13.98;;;5.90;;
30474;SDS011;17264;53.340;9.888;2022-07-01T06:16:57;10.68;;;5.65;;
30474;SDS011;17264;53.340;9.888;2022-07-01T06:19:23;14.63;;;5.63;;
30474;SDS011;17264;53.340;9.888;2022-07-01T06:21:49;10.60;;;6.72;;
30474;SDS011;17264;53.340;9.888;2022-07-01T06:24:14;13.60;;;6.53;;
30474;SDS011;17264;53.340;9.888;2022-07-01T06:26:40;13.13;;;6.57;;
30474;SDS011;17264;53.340;9.888;2022-07-01T06:29:06;12.00;;;6.03;;
30474;SDS011;17264;53.340;9.888;2022-07-01T06:31:32;11.98;;;6.60;;
30474;SDS011;17264;53.340;9.888;2022-07-01T06:33:59;13.15;;;6.35;;
30474;SDS011;17264;53.340;9.888;2022-07-01T06:36:25;13.48;;;6.95;;
30474;SDS011;17264;53.340;9.888;2022-07-01T06:38:51;11.88;;;5.72;;
30474;SDS011;17264;53.340;9.888;2022-07-01T06:41:17;13.88;;;6.03;;
30474;SDS011;17264;53.340;9.888;2022-07-01T06:43:56;10.45;;;7.22;;
30474;SDS011;17264;53.340;9.888;2022-07-01T06:46:23;13.25;;;6.07;;
30474;SDS011;17264;53.340;9.888;2022-07-01T06:48:49;13.80;;;5.80;;
30474;SDS011;17264;53.340;9.888;2022-07-01T06:51:15;11.13;;;4.97;;
30474;SDS011;17264;53.340;9.888;2022-07-01T06:53:42;11.30;;;6.00;;
30474;SDS011;17264;53.340;9.888;2022-07-01T06:56:09;9.23;;;4.30;;
30474;SDS011;17264;53.340;9.888;2022-07-01T06:58:36;9.50;;;5.28;;
30474;SDS011;17264;53.340;9.888;2022-07-01T07:01:03;7.28;;;4.90;;
30474;SDS011;17264;53.340;9.888;2022-07-01T07:03:29;9.07;;;4.80;;
30474;SDS011;17264;53.340;9.888;2022-07-01T07:05:55;8.98;;;4.55;;
30474;SDS011;17264;53.340;9.888;2022-07-01T07:08:21;11.23;;;5.15;;
30474;SDS011;17264;53.340;9.888;2022-07-01T07:10:46;7.68;;;4.97;;
30474;SDS011;17264;53.340;9.888;2022-07-01T07:13:12;7.53;;;4.15;;
30474;SDS011;17264;53.340;9.888;2022-07-01T07:15:38;8.70;;;4.25;;
30474;SDS011;17264;53.340;9.888;2022-07-01T07:18:06;7.95;;;3.50;;
30474;SDS011;17264;53.340;9.888;2022-07-01T07:20:34;9.90;;;4.00;;
30474;SDS011;17264;53.340;9.888;2022-07-01T07:23:00;6.47;;;3.90;;
30474;SDS011;17264;53.340;9.888;2022-07-01T07:25:25;6.43;;;3.60;;
30474;SDS011;17264;53.340;9.888;2022-07-01T07:27:52;5.85;;;3.15;;
30474;SDS011;17264;53.340;9.888;2022-07-01T07:30:18;5.82;;;3.30;;
30474;SDS011;17264;53.340;9.888;2022-07-01T07:32:44;8.95;;;4.47;;
30474;SDS011;17264;53.340;9.888;2022-07-01T07:35:10;5.43;;;2.85;;
30474;SDS011;17264;53.340;9.888;2022-07-01T07:37:36;9.73;;;3.28;;
30474;SDS011;17264;53.340;9.888;2022-07-01T07:40:02;5.38;;;2.67;;
30474;SDS011;17264;53.340;9.888;2022-07-01T07:42:31;6.10;;;2.83;;
30474;SDS011;17264;53.340;9.888;2022-07-01T07:44:57;4.85;;;2.90;;
30474;SDS011;17264;53.340;9.888;2022-07-01T07:47:23;8.82;;;2.92;;
30474;SDS011;17264;53.340;9.888;2022-07-01T07:49:49;7.05;;;3.20;;
30474;SDS011;17264;53.340;9.888;2022-07-01T07:52:15;6.18;;;3.08;;
30474;SDS011;17264;53.340;9.888;2022-07-01T07:54:41;6.30;;;2.85;;
30474;SDS011;17264;53.340;9.888;2022-07-01T07:57:06;6.60;;;3.10;;
30474;SDS011;17264;53.340;9.888;2022-07-01T07:59:33;6.68;;;3.20;;
30474;SDS011;17264;53.340;9.888;2022-07-01T08:01:59;5.40;;;2.72;;
30474;SDS011;17264;53.340;9.888;2022-07-01T08:04:25;9.43;;;3.13;;
30474;SDS011;17264;53.340;9.888;2022-07-01T08:06:51;4.70;;;2.70;;
30474;SDS011;17264;53.340;9.888;2022-07-01T08:09:17;6.75;;;2.85;;
30474;SDS011;17264;53.340;9.888;2022-07-01T08:11:43;6.32;;;3.10;;
30474;SDS011;17264;53.340;9.888;2022-07-01T08:14:09;5.03;;;3.05;;
30474;SDS011;17264;53.340;9.888;2022-07-01T08:16:35;6.28;;;2.95;;
30474;SDS011;17264;53.340;9.888;2022-07-01T08:19:01;9.60;;;3.30;;
30474;SDS011;17264;53.340;9.888;2022-07-01T08:21:28;5.05;;;2.85;;
30474;SDS011;17264;53.340;9.888;2022-07-01T08:23:54;6.20;;;3.13;;
30474;SDS011;17264;53.340;9.888;2022-07-01T08:26:21;7.13;;;3.10;;
30474;SDS011;17264;53.340;9.888;2022-07-01T08:28:46;5.05;;;2.70;;
30474;SDS011;17264;53.340;9.888;2022-07-01T08:31:12;5.38;;;3.00;;
30474;SDS011;17264;53.340;9.888;2022-07-01T08:33:40;6.10;;;3.15;;
30474;SDS011;17264;53.340;9.888;2022-07-01T08:36:06;6.40;;;3.28;;
30474;SDS011;17264;53.340;9.888;2022-07-01T08:38:33;7.32;;;3.10;;
30474;SDS011;17264;53.340;9.888;2022-07-01T08:41:00;7.28;;;3.75;;
30474;SDS011;17264;53.340;9.888;2022-07-01T08:43:26;7.13;;;3.13;;
30474;SDS011;17264;53.340;9.888;2022-07-01T08:45:53;6.00;;;3.83;;
30474;SDS011;17264;53.340;9.888;2022-07-01T08:48:19;7.57;;;3.58;;
30474;SDS011;17264;53.340;9.888;2022-07-01T08:50:45;4.40;;;3.03;;
30474;SDS011;17264;53.340;9.888;2022-07-01T08:53:11;6.03;;;3.35;;
30474;SDS011;17264;53.340;9.888;2022-07-01T08:55:38;5.15;;;3.35;;
30474;SDS011;17264;53.340;9.888;2022-07-01T08:58:24;6.18;;;3.42;;
30474;SDS011;17264;53.340;9.888;2022-07-01T09:00:52;10.07;;;3.08;;
30474;SDS011;17264;53.340;9.888;2022-07-01T09:03:21;6.07;;;3.50;;
30474;SDS011;17264;53.340;9.888;2022-07-01T09:05:50;4.32;;;3.40;;
30474;SDS011;17264;53.340;9.888;2022-07-01T09:08:18;8.82;;;2.85;;
30474;SDS011;17264;53.340;9.888;2022-07-01T09:10:44;5.53;;;3.20;;
30474;SDS011;17264;53.340;9.888;2022-07-01T09:13:11;5.60;;;3.17;;
30474;SDS011;17264;53.340;9.888;2022-07-01T09:15:39;4.60;;;3.33;;
30474;SDS011;17264;53.340;9.888;2022-07-01T09:20:36;6.82;;;3.00;;
30474;SDS011;17264;53.340;9.888;2022-07-01T09:23:08;5.28;;;3.00;;
30474;SDS011;17264;53.340;9.888;2022-07-01T09:30:38;6.30;;;2.80;;
30474;SDS011;17264;53.340;9.888;2022-07-01T09:35:33;5.68;;;3.35;;
30474;SDS011;17264;53.340;9.888;2022-07-01T09:37:59;6.18;;;3.25;;
30474;SDS011;17264;53.340;9.888;2022-07-01T09:40:25;12.15;;;3.30;;
30474;SDS011;17264;53.340;9.888;2022-07-01T09:42:51;7.75;;;3.53;;
30474;SDS011;17264;53.340;9.888;2022-07-01T09:45:16;6.55;;;3.00;;
30474;SDS011;17264;53.340;9.888;2022-07-01T09:47:42;9.52;;;3.50;;
30474;SDS011;17264;53.340;9.888;2022-07-01T09:50:08;6.43;;;3.53;;
30474;SDS011;17264;53.340;9.888;2022-07-01T09:52:35;4.75;;;3.13;;
30474;SDS011;17264;53.340;9.888;2022-07-01T09:55:02;7.53;;;4.03;;
30474;SDS011;17264;53.340;9.888;2022-07-01T09:57:29;6.35;;;3.60;;
30474;SDS011;17264;53.340;9.888;2022-07-01T09:59:55;7.30;;;4.10;;
30474;SDS011;17264;53.340;9.888;2022-07-01T10:02:21;5.63;;;4.00;;
30474;SDS011;17264;53.340;9.888;2022-07-01T10:04:54;9.80;;;4.07;;
30474;SDS011;17264;53.340;9.888;2022-07-01T10:07:35;6.53;;;4.43;;
30474;SDS011;17264;53.340;9.888;2022-07-01T10:12:59;6.25;;;4.13;;
30474;SDS011;17264;53.340;9.888;2022-07-01T10:15:27;7.00;;;3.75;;
30474;SDS011;17264;53.340;9.888;2022-07-01T10:17:53;5.82;;;3.80;;
30474;SDS011;17264;53.340;9.888;2022-07-01T10:20:22;6.72;;;4.10;;
30474;SDS011;17264;53.340;9.888;2022-07-01T10:23:00;5.07;;;4.00;;
30474;SDS011;17264;53.340;9.888;2022-07-01T10:25:46;9.05;;;3.95;;
30474;SDS011;17264;53.340;9.888;2022-07-01T10:28:29;8.15;;;4.82;;
30474;SDS011;17264;53.340;9.888;2022-07-01T10:31:13;6.93;;;4.53;;
30474;SDS011;17264;53.340;9.888;2022-07-01T10:44:21;8.57;;;6.90;;
30474;SDS011;17264;53.340;9.888;2022-07-01T10:52:00;11.85;;;7.93;;
30474;SDS011;17264;53.340;9.888;2022-07-01T10:59:40;13.32;;;7.43;;
30474;SDS011;17264;53.340;9.888;2022-07-01T11:02:14;9.88;;;6.13;;
30474;SDS011;17264;53.340;9.888;2022-07-01T11:04:44;9.65;;;6.47;;
30474;SDS011;17264;53.340;9.888;2022-07-01T11:07:10;8.80;;;6.32;;
30474;SDS011;17264;53.340;9.888;2022-07-01T11:09:36;9.40;;;6.90;;
30474;SDS011;17264;53.340;9.888;2022-07-01T11:12:03;12.63;;;7.47;;
30474;SDS011;17264;53.340;9.888;2022-07-01T11:14:38;10.80;;;7.82;;
30474;SDS011;17264;53.340;9.888;2022-07-01T11:17:06;12.05;;;8.35;;
30474;SDS011;17264;53.340;9.888;2022-07-01T11:19:32;12.70;;;7.90;;
30474;SDS011;17264;53.340;9.888;2022-07-01T11:21:58;14.00;;;8.15;;
30474;SDS011;17264;53.340;9.888;2022-07-01T11:24:24;9.23;;;8.15;;
30474;SDS011;17264;53.340;9.888;2022-07-01T11:26:50;10.02;;;7.82;;
30474;SDS011;17264;53.340;9.888;2022-07-01T11:29:31;13.95;;;8.43;;
30474;SDS011;17264;53.340;9.888;2022-07-01T11:31:57;10.55;;;8.00;;
30474;SDS011;17264;53.340;9.888;2022-07-01T11:34:23;10.65;;;8.73;;
30474;SDS011;17264;53.340;9.888;2022-07-01T11:36:52;11.95;;;8.48;;
30474;SDS011;17264;53.340;9.888;2022-07-01T11:39:37;9.30;;;8.25;;
30474;SDS011;17264;53.340;9.888;2022-07-01T11:42:06;13.02;;;9.63;;
30474;SDS011;17264;53.340;9.888;2022-07-01T11:47:07;12.32;;;9.95;;
30474;SDS011;17264;53.340;9.888;2022-07-01T11:49:34;12.57;;;9.50;;
30474;SDS011;17264;53.340;9.888;2022-07-01T11:52:10;10.57;;;9.52;;
30474;SDS011;17264;53.340;9.888;2022-07-01T11:54:39;13.20;;;9.90;;
30474;SDS011;17264;53.340;9.888;2022-07-01T11:57:13;10.65;;;9.55;;
30474;SDS011;17264;53.340;9.888;2022-07-01T11:59:44;13.35;;;10.95;;
30474;SDS011;17264;53.340;9.888;2022-07-01T12:02:15;12.30;;;9.18;;
30474;SDS011;17264;53.340;9.888;2022-07-01T12:04:42;11.90;;;10.02;;
30474;SDS011;17264;53.340;9.888;2022-07-01T12:07:09;10.15;;;8.63;;
30474;SDS011;17264;53.340;9.888;2022-07-01T12:09:37;11.25;;;9.55;;
30474;SDS011;17264;53.340;9.888;2022-07-01T12:12:03;11.38;;;9.35;;
30474;SDS011;17264;53.340;9.888;2022-07-01T12:14:34;11.93;;;9.25;;
30474;SDS011;17264;53.340;9.888;2022-07-01T12:17:02;9.48;;;8.00;;
30474;SDS011;17264;53.340;9.888;2022-07-01T12:22:00;10.40;;;8.02;;
30474;SDS011;17264;53.340;9.888;2022-07-01T12:24:29;8.05;;;6.97;;
30474;SDS011;17264;53.340;9.888;2022-07-01T12:29:24;10.63;;;7.82;;
30474;SDS011;17264;53.340;9.888;2022-07-01T12:31:58;10.25;;;7.50;;
30474;SDS011;17264;53.340;9.888;2022-07-01T12:37:07;9.15;;;8.00;;
30474;SDS011;17264;53.340;9.888;2022-07-01T12:40:00;10.43;;;8.73;;
30474;SDS011;17264;53.340;9.888;2022-07-01T12:42:30;10.00;;;8.95;;
30474;SDS011;17264;53.340;9.888;2022-07-01T12:45:11;9.25;;;8.35;;
30474;SDS011;17264;53.340;9.888;2022-07-01T12:47:45;8.57;;;7.78;;
30474;SDS011;17264;53.340;9.888;2022-07-01T12:50:13;13.32;;;9.93;;
30474;SDS011;17264;53.340;9.888;2022-07-01T12:55:27;12.43;;;10.68;;
30474;SDS011;17264;53.340;9.888;2022-07-01T12:57:57;13.75;;;11.85;;
30474;SDS011;17264;53.340;9.888;2022-07-01T13:00:25;14.43;;;10.70;;
30474;SDS011;17264;53.340;9.888;2022-07-01T13:02:56;13.65;;;12.18;;
30474;SDS011;17264;53.340;9.888;2022-07-01T13:05:24;13.23;;;11.57;;
30474;SDS011;17264;53.340;9.888;2022-07-01T13:07:50;15.27;;;12.43;;
30474;SDS011;17264;53.340;9.888;2022-07-01T13:10:16;13.25;;;11.95;;
30474;SDS011;17264;53.340;9.888;2022-07-01T13:12:43;13.57;;;12.25;;
30474;SDS011;17264;53.340;9.888;2022-07-01T13:15:10;14.20;;;12.70;;
30474;SDS011;17264;53.340;9.888;2022-07-01T13:17:37;17.27;;;13.43;;
30474;SDS011;17264;53.340;9.888;2022-07-01T13:20:03;13.00;;;11.80;;
30474;SDS011;17264;53.340;9.888;2022-07-01T13:22:30;15.07;;;12.73;;
30474;SDS011;17264;53.340;9.888;2022-07-01T13:24:55;13.70;;;11.77;;
30474;SDS011;17264;53.340;9.888;2022-07-01T13:27:21;13.48;;;11.73;;
30474;SDS011;17264;53.340;9.888;2022-07-01T13:29:50;12.23;;;11.02;;
30474;SDS011;17264;53.340;9.888;2022-07-01T13:32:16;14.27;;;12.55;;
30474;SDS011;17264;53.340;9.888;2022-07-01T13:34:42;15.43;;;11.55;;
30474;SDS011;17264;53.340;9.888;2022-07-01T13:37:08;11.90;;;10.43;;
30474;SDS011;17264;53.340;9.888;2022-07-01T13:39:37;13.20;;;9.70;;
30474;SDS011;17264;53.340;9.888;2022-07-01T13:42:03;9.55;;;8.55;;
30474;SDS011;17264;53.340;9.888;2022-07-01T13:44:29;10.85;;;8.10;;
30474;SDS011;17264;53.340;9.888;2022-07-01T13:46:54;10.18;;;8.77;;
30474;SDS011;17264;53.340;9.888;2022-07-01T13:49:20;9.27;;;8.13;;
30474;SDS011;17264;53.340;9.888;2022-07-01T13:51:46;10.75;;;9.55;;
30474;SDS011;17264;53.340;9.888;2022-07-01T13:54:12;12.10;;;7.72;;
30474;SDS011;17264;53.340;9.888;2022-07-01T13:56:40;10.18;;;8.85;;
30474;SDS011;17264;53.340;9.888;2022-07-01T13:59:07;13.85;;;9.73;;
30474;SDS011;17264;53.340;9.888;2022-07-01T14:01:33;10.63;;;8.90;;
30474;SDS011;17264;53.340;9.888;2022-07-01T14:04:00;10.70;;;8.98;;
30474;SDS011;17264;53.340;9.888;2022-07-01T14:06:25;10.02;;;9.07;;
30474;SDS011;17264;53.340;9.888;2022-07-01T14:08:51;12.82;;;9.82;;
30474;SDS011;17264;53.340;9.888;2022-07-01T14:11:17;11.70;;;9.60;;
30474;SDS011;17264;53.340;9.888;2022-07-01T14:13:43;13.32;;;10.00;;
30474;SDS011;17264;53.340;9.888;2022-07-01T14:16:09;12.48;;;10.45;;
30474;SDS011;17264;53.340;9.888;2022-07-01T14:18:35;14.20;;;10.32;;
30474;SDS011;17264;53.340;9.888;2022-07-01T14:21:02;16.13;;;11.43;;
30474;SDS011;17264;53.340;9.888;2022-07-01T14:23:29;13.15;;;11.48;;
30474;SDS011;17264;53.340;9.888;2022-07-01T14:26:04;16.00;;;11.85;;
30474;SDS011;17264;53.340;9.888;2022-07-01T14:28:30;14.18;;;11.07;;
30474;SDS011;17264;53.340;9.888;2022-07-01T14:30:57;12.98;;;11.70;;
30474;SDS011;17264;53.340;9.888;2022-07-01T14:33:22;12.80;;;11.55;;
30474;SDS011;17264;53.340;9.888;2022-07-01T14:35:54;13.90;;;12.32;;
30474;SDS011;17264;53.340;9.888;2022-07-01T14:38:20;13.40;;;12.00;;
30474;SDS011;17264;53.340;9.888;2022-07-01T14:40:46;14.00;;;11.63;;
30474;SDS011;17264;53.340;9.888;2022-07-01T14:43:12;14.30;;;12.18;;
30474;SDS011;17264;53.340;9.888;2022-07-01T14:45:37;14.88;;;13.25;;
30474;SDS011;17264;53.340;9.888;2022-07-01T14:48:03;13.30;;;12.00;;
30474;SDS011;17264;53.340;9.888;2022-07-01T14:50:29;15.43;;;13.48;;
30474;SDS011;17264;53.340;9.888;2022-07-01T14:52:55;15.70;;;11.68;;
30474;SDS011;17264;53.340;9.888;2022-07-01T14:55:21;17.75;;;14.07;;
30474;SDS011;17264;53.340;9.888;2022-07-01T14:57:46;13.88;;;11.75;;
30474;SDS011;17264;53.340;9.888;2022-07-01T15:00:12;14.05;;;12.27;;
30474;SDS011;17264;53.340;9.888;2022-07-01T15:02:39;18.92;;;11.70;;
30474;SDS011;17264;53.340;9.888;2022-07-01T15:05:05;14.60;;;10.88;;
30474;SDS011;17264;53.340;9.888;2022-07-01T15:07:30;11.93;;;10.55;;
30474;SDS011;17264;53.340;9.888;2022-07-01T15:09:56;14.10;;;11.48;;
30474;SDS011;17264;53.340;9.888;2022-07-01T15:12:25;16.90;;;12.00;;
30474;SDS011;17264;53.340;9.888;2022-07-01T15:14:51;13.95;;;11.70;;
30474;SDS011;17264;53.340;9.888;2022-07-01T15:17:17;13.00;;;11.13;;
30474;SDS011;17264;53.340;9.888;2022-07-01T15:19:43;16.10;;;10.88;;
30474;SDS011;17264;53.340;9.888;2022-07-01T15:22:08;17.15;;;10.77;;
30474;SDS011;17264;53.340;9.888;2022-07-01T15:24:34;14.90;;;11.63;;
30474;SDS011;17264;53.340;9.888;2022-07-01T15:27:01;13.35;;;10.32;;